Aeroporto :
LOGIN :

Iscrizione | Disclaimer

   EN    FR    IT 

 










Sommario :    VFR   VFR Marginale   IFR   IFR Intensivo   IFR Molto Intensivo
Visibilità : 
Base nubi : 
>= 8 km
>= 3000ft
5 / 8 km
1000 / 3000 ft
1500m / 5 km
500 / 1000 ft
800 / 1500m
200 / 500 ft
< 800m
< 200 ft
Simboli :   Temporali  Nebbia  Neve Forte  Precipitazioni Forti  Vento > 20 kt
SIGMETs :   Varie  Temporali  Ghiacco  Turbolenza  Onda orograficha  Ceneri Vulcaniche






- Altitudine del aeroporto : 162 ft
- Codice IATA : BOD


LFBD - Bordeaux / Merignac

ULTIMO METAR :
  • 212300Z AUTO 00000KT CAVOK 05/03 Q1032 TEMPO 2000 MIFG

METARs OBSOLETI :
  • 212230Z AUTO 02003KT CAVOK 06/03 Q1032 TEMPO 2000 MIFG
  • 212200Z AUTO 04003KT CAVOK 07/03 Q1032 NOSIG
  • 212130Z AUTO 03005KT CAVOK 08/03 Q1032 NOSIG
  • 212100Z AUTO 03007KT 340V040 CAVOK 08/03 Q1032 NOSIG

TAF TAF LFBD
Valido dal 21 a 18 ore il 23 a 00 ore UTC


211700Z 2118/2224 VRB03KT CAVOK TX16/2214Z TN02/2206Z
PROB40 2200/2209 2000 MIFG
PROB30
TEMPO 2204/2209 0500 FG
TEMPO 2222/2224 MIFG
ATIS : +33 5 57 92 81 04



MetMap, La meteo Aeronautica in un colpo d'occhio ! - Copyright ORBIFLY Dicembre 2007 - Disclaimer

ORBIFLY MET'MAP TEAM :

Programmazione e sviluppo : Alexandra Zaïnal
Concezione : Baudouin d'Aumeries
Aiuto per la programmazione : Marc-Olivier Méhu
Supporto tecnico e logistico : Manuel Goepfert
Aiuto per la traduzione : Arnaldo La Scala

Contatto : metmap@orbifly.com




FONTI E CREDITI :

   NOAA